Time;durP1;ratioP1;P1;durP2;ratioP2;P2;SDS_P1;SDS_P2;PMS_P1;PMS_P2;Temp;Humidity;BMP_temperature;BMP_pressure;BME280_temperature;BME280_humidity;BME280_pressure;Samples;Min_cycle;Max_cycle;Signal;HPM_P1;HPM_P2
2023/01/17 00:10:25;;;;;;;11.67;7.97;;;10.80;99.90;;;;;;10393761;28;20207;-81
2023/01/17 00:15:29;;;;;;;16.10;11.03;;;10.80;99.90;;;;;;10408594;28;20266;-80
2023/01/17 00:26:02;;;;;;;11.33;9.20;;;10.40;99.90;;;;;;10409913;28;20277;-80
2023/01/17 01:34:28;;;;;;;16.73;10.07;;;9.60;99.90;;;;;;10407047;28;20919;-80
2023/01/17 01:39:31;;;;;;;12.80;9.43;;;8.90;99.90;;;;;;10408063;28;20625;-80
2023/01/17 01:44:48;;;;;;;14.77;9.90;;;9.00;99.90;;;;;;10409565;28;20223;-80
2023/01/17 01:49:50;;;;;;;14.10;9.97;;;9.30;99.90;;;;;;10415556;28;20723;-80
2023/01/17 01:55:11;;;;;;;15.80;11.30;;;8.90;99.90;;;;;;10416339;28;20296;-80
2023/01/17 02:00:23;;;;;;;18.60;13.17;;;8.60;99.90;;;;;;10414284;28;20241;-80
2023/01/17 02:05:28;;;;;;;10.67;7.73;;;8.60;99.90;;;;;;10397543;28;20227;-81
2023/01/17 02:10:35;;;;;;;20.17;14.33;;;8.00;99.90;;;;;;10397836;28;20308;-81
2023/01/17 02:15:47;;;;;;;14.20;10.93;;;7.60;99.90;;;;;;10415096;28;20239;-80
2023/01/17 02:21:22;;;;;;;19.60;13.97;;;8.50;99.90;;;;;;10387502;28;20259;-81
2023/01/17 02:26:54;;;;;;;21.23;15.30;;;8.30;99.90;;;;;;10413452;28;20308;-81
2023/01/17 02:32:05;;;;;;;16.00;12.30;;;8.10;99.90;;;;;;10413868;28;20603;-80
2023/01/17 02:37:22;;;;;;;23.30;15.63;;;7.10;99.90;;;;;;10401574;28;20258;-80
2023/01/17 02:42:29;;;;;;;22.23;16.03;;;7.60;99.90;;;;;;10413242;28;20684;-80
2023/01/17 02:47:31;;;;;;;14.10;9.33;;;7.30;99.90;;;;;;10412216;28;20263;-80
2023/01/17 02:52:37;;;;;;;25.37;16.30;;;7.50;99.90;;;;;;10411877;28;21031;-81
2023/01/17 02:57:48;;;;;;;23.23;15.53;;;8.20;99.90;;;;;;10412566;28;20203;-81
2023/01/17 03:02:57;;;;;;;26.40;17.50;;;7.70;99.90;;;;;;10412418;28;20199;-80
2023/01/17 03:08:00;;;;;;;21.63;15.70;;;7.20;99.90;;;;;;10413099;28;20255;-80
2023/01/17 03:13:03;;;;;;;21.40;15.93;;;7.30;99.90;;;;;;10412361;28;20278;-81
2023/01/17 03:18:11;;;;;;;29.73;19.30;;;6.80;99.90;;;;;;10410222;28;20237;-81
2023/01/17 03:23:13;;;;;;;22.93;16.73;;;7.40;99.90;;;;;;10412577;28;20618;-80
2023/01/17 03:28:16;;;;;;;26.57;18.73;;;6.70;99.90;;;;;;10412338;28;20251;-80
2023/01/17 03:33:19;;;;;;;25.10;18.53;;;6.50;99.90;;;;;;10410140;28;20299;-80
2023/01/17 03:38:21;;;;;;;24.73;18.67;;;6.30;99.90;;;;;;10412324;28;20315;-80
2023/01/17 03:43:24;;;;;;;23.57;17.47;;;6.10;99.90;;;;;;10410605;28;20705;-80
2023/01/17 03:48:26;;;;;;;25.53;17.77;;;5.70;99.90;;;;;;10411004;28;20274;-80
2023/01/17 03:53:29;;;;;;;23.10;16.77;;;5.60;99.90;;;;;;10394264;28;20285;-80
2023/01/17 03:58:32;;;;;;;27.17;20.60;;;5.60;99.90;;;;;;10392234;28;20231;-80
2023/01/17 04:03:34;;;;;;;25.53;18.30;;;5.40;99.90;;;;;;10409012;28;20239;-80
2023/01/17 04:08:37;;;;;;;26.17;17.50;;;5.40;99.90;;;;;;10410646;28;20277;-80
2023/01/17 04:13:39;;;;;;;26.50;18.70;;;5.00;99.90;;;;;;10409218;28;20243;-80
2023/01/17 04:18:43;;;;;;;29.67;21.00;;;4.90;99.90;;;;;;10410164;28;20758;-80
2023/01/17 04:23:46;;;;;;;25.63;18.43;;;4.60;99.90;;;;;;10391423;28;20211;-81
2023/01/17 04:28:49;;;;;;;29.17;18.23;;;4.50;99.90;;;;;;10409933;28;20281;-81
2023/01/17 04:33:51;;;;;;;26.97;18.27;;;4.60;99.90;;;;;;10409425;28;21018;-81
2023/01/17 04:38:54;;;;;;;29.80;19.43;;;4.50;99.90;;;;;;10409839;28;20235;-81
2023/01/17 04:43:56;;;;;;;28.03;17.73;;;4.40;99.90;;;;;;10391838;28;20262;-80
2023/01/17 04:48:59;;;;;;;26.40;18.67;;;4.20;99.90;;;;;;10389727;28;20274;-80
2023/01/17 04:54:01;;;;;;;24.67;17.17;;;4.30;99.90;;;;;;10408501;28;20231;-80
2023/01/17 04:59:04;;;;;;;21.87;15.53;;;4.00;99.90;;;;;;10388908;28;20289;-80
2023/01/17 05:04:07;;;;;;;25.47;17.83;;;3.90;99.90;;;;;;10408287;28;20284;-80
2023/01/17 05:09:09;;;;;;;19.03;13.23;;;4.00;99.90;;;;;;10390246;28;20846;-80
2023/01/17 05:14:12;;;;;;;23.90;17.27;;;4.00;99.90;;;;;;10388118;28;20632;-80
2023/01/17 05:19:14;;;;;;;25.77;16.50;;;4.00;99.90;;;;;;10404853;28;20749;-81
2023/01/17 05:24:17;;;;;;;25.17;17.93;;;3.90;99.90;;;;;;10389789;28;20700;-81
2023/01/17 05:29:20;;;;;;;31.47;18.63;;;3.80;99.90;;;;;;10405138;28;20688;-80
2023/01/17 05:34:23;;;;;;;24.63;16.70;;;3.70;99.90;;;;;;10405935;28;20719;-80
2023/01/17 05:39:26;;;;;;;28.93;17.87;;;3.70;99.90;;;;;;10405227;28;20856;-81
2023/01/17 05:44:28;;;;;;;28.53;18.60;;;3.80;99.90;;;;;;10406311;28;20293;-81
2023/01/17 05:49:31;;;;;;;26.87;16.40;;;3.70;99.90;;;;;;10407030;28;20312;-81
2023/01/17 05:54:33;;;;;;;23.27;15.73;;;5.60;99.90;;;;;;10405363;28;20224;-81
2023/01/17 05:59:36;;;;;;;20.63;14.50;;;5.80;99.90;;;;;;10388958;28;20246;-81
2023/01/17 06:04:39;;;;;;;20.17;13.47;;;5.50;99.90;;;;;;10400975;28;20759;-80
2023/01/17 06:09:41;;;;;;;21.43;13.60;;;5.90;99.90;;;;;;10435174;28;20324;-81
2023/01/17 06:14:44;;;;;;;17.80;12.33;;;6.30;99.90;;;;;;10433133;28;20261;-80
2023/01/17 06:19:49;;;;;;;16.03;11.90;;;6.90;99.90;;;;;;10440971;28;20312;-81
2023/01/17 06:24:52;;;;;;;18.57;12.40;;;6.90;99.90;;;;;;10443900;28;20230;-81
2023/01/17 06:29:54;;;;;;;19.13;11.83;;;7.50;99.90;;;;;;10403708;28;20704;-81
2023/01/17 06:34:57;;;;;;;20.43;13.23;;;7.60;99.90;;;;;;10412778;28;20247;-81
2023/01/17 06:40:00;;;;;;;17.77;12.77;;;7.50;99.90;;;;;;10410076;28;21970;-81
2023/01/17 06:45:03;;;;;;;20.00;12.33;;;6.30;99.90;;;;;;10399832;28;20715;-82
2023/01/17 06:50:07;;;;;;;15.63;10.00;;;5.70;99.90;;;;;;10411826;28;20301;-91
2023/01/17 06:55:10;;;;;;;14.37;10.70;;;7.40;99.90;;;;;;10424111;28;20231;-90
2023/01/17 07:00:13;;;;;;;15.93;10.10;;;7.20;99.90;;;;;;10414114;28;20284;-91
2023/01/17 07:05:16;;;;;;;16.60;10.67;;;6.00;99.90;;;;;;10414570;28;20242;-92
2023/01/17 07:10:19;;;;;;;20.80;11.20;;;5.30;99.90;;;;;;10413515;28;20311;-91
2023/01/17 07:15:22;;;;;;;17.27;11.33;;;5.00;99.90;;;;;;10396255;28;20616;-91
2023/01/17 07:20:24;;;;;;;59.53;12.07;;;4.70;99.90;;;;;;10412378;28;20680;-85
2023/01/17 07:25:27;;;;;;;34.73;10.33;;;4.90;99.90;;;;;;10410261;28;20238;-85
2023/01/17 07:30:29;;;;;;;21.67;9.70;;;5.90;99.90;;;;;;10412369;28;20289;-84
2023/01/17 07:35:32;;;;;;;11.97;9.33;;;5.80;99.90;;;;;;10410847;28;20284;-84
2023/01/17 07:40:34;;;;;;;12.07;7.43;;;5.20;99.90;;;;;;10411548;28;20279;-84
2023/01/17 07:45:50;;;;;;;15.37;9.27;;;5.00;99.90;;;;;;10391018;28;20601;-84
2023/01/17 07:50:54;;;;;;;21.27;9.87;;;4.70;99.90;;;;;;10411782;28;20250;-84
2023/01/17 07:56:06;;;;;;;17.53;9.07;;;4.50;99.90;;;;;;10411522;28;20242;-84
2023/01/17 08:01:11;;;;;;;16.90;10.80;;;4.40;99.90;;;;;;10431877;28;20229;-83
2023/01/17 08:06:21;;;;;;;14.43;8.97;;;4.50;99.90;;;;;;10415844;28;20951;-84
2023/01/17 08:11:24;;;;;;;17.93;9.20;;;4.30;99.90;;;;;;10403295;28;20252;-84
2023/01/17 08:16:28;;;;;;;17.83;7.40;;;4.40;99.90;;;;;;10405630;28;20217;-84
2023/01/17 08:21:31;;;;;;;12.30;8.00;;;4.50;99.90;;;;;;10407541;28;20676;-84
2023/01/17 08:26:34;;;;;;;19.63;10.80;;;4.50;99.90;;;;;;10387858;28;20544;-85
2023/01/17 08:31:36;;;;;;;15.10;9.13;;;4.50;99.90;;;;;;10416621;28;20312;-84
2023/01/17 08:36:41;;;;;;;16.87;10.40;;;4.50;99.90;;;;;;10436601;28;20271;-84
2023/01/17 08:41:44;;;;;;;20.03;11.27;;;4.50;99.90;;;;;;10428282;28;20269;-84
2023/01/17 08:46:46;;;;;;;10.30;7.20;;;4.60;99.90;;;;;;10437707;28;20237;-84
2023/01/17 08:51:51;;;;;;;11.53;6.13;;;4.50;99.90;;;;;;10421848;28;20281;-84
2023/01/17 08:56:54;;;;;;;7.03;5.33;;;4.60;99.90;;;;;;10399351;28;20681;-84
2023/01/17 09:01:57;;;;;;;11.80;6.07;;;4.70;99.90;;;;;;10413214;28;20277;-84
2023/01/17 09:07:01;;;;;;;11.67;7.70;;;5.20;99.90;;;;;;10392108;28;20914;-84
2023/01/17 09:12:04;;;;;;;13.53;7.83;;;5.40;99.90;;;;;;10414360;28;20662;-84
2023/01/17 09:17:06;;;;;;;12.27;6.23;;;5.40;99.90;;;;;;10410899;28;20230;-84
2023/01/17 09:22:12;;;;;;;13.53;6.33;;;6.50;99.90;;;;;;10370492;28;20231;-84
2023/01/17 09:27:15;;;;;;;8.57;5.30;;;7.60;99.90;;;;;;10373061;28;20204;-84
2023/01/17 09:32:17;;;;;;;11.17;6.00;;;9.10;99.90;;;;;;10448823;28;20250;-83
2023/01/17 09:37:20;;;;;;;9.47;4.90;;;9.50;99.90;;;;;;10416962;28;20681;-84
2023/01/17 09:42:38;;;;;;;7.67;5.60;;;9.10;99.90;;;;;;10398962;28;20254;-84
2023/01/17 09:47:44;;;;;;;11.23;7.17;;;8.70;99.90;;;;;;10441485;28;20179;-84
2023/01/17 09:52:46;;;;;;;11.13;6.43;;;8.00;99.90;;;;;;10433323;28;20246;-82
2023/01/17 09:58:01;;;;;;;10.67;6.90;;;8.00;99.90;;;;;;10429116;28;20195;-83
2023/01/17 10:03:36;;;;;;;8.83;4.50;;;8.00;99.90;;;;;;10419178;28;20192;-83
2023/01/17 10:09:19;;;;;;;8.27;5.50;;;9.50;99.90;;;;;;10450279;28;20220;-83
2023/01/17 10:14:41;;;;;;;10.20;5.10;;;9.70;99.90;;;;;;10450966;28;20234;-84
2023/01/17 10:19:49;;;;;;;10.07;4.70;;;9.90;99.90;;;;;;10468168;28;20210;-85
2023/01/17 10:25:20;;;;;;;11.97;5.47;;;10.90;99.90;;;;;;10471045;28;20241;-85
2023/01/17 10:30:33;;;;;;;12.97;7.07;;;11.30;99.90;;;;;;10437573;28;20223;-85
2023/01/17 10:35:40;;;;;;;8.50;5.10;;;10.90;99.30;;;;;;10469882;28;20211;-85
2023/01/17 10:40:53;;;;;;;5.77;3.77;;;9.60;98.20;;;;;;10489541;28;20213;-85
2023/01/17 10:45:56;;;;;;;6.77;4.53;;;9.10;99.70;;;;;;10463296;28;20192;-84
2023/01/17 10:51:20;;;;;;;8.43;5.23;;;9.80;99.90;;;;;;10437531;28;20223;-84
2023/01/17 10:56:28;;;;;;;10.40;5.40;;;10.40;99.90;;;;;;10455307;28;20200;-84
2023/01/17 11:01:31;;;;;;;13.43;4.87;;;11.30;95.70;;;;;;10436608;28;20234;-83
2023/01/17 11:06:37;;;;;;;8.83;3.93;;;11.20;99.90;;;;;;10453217;28;20230;-83
2023/01/17 11:11:59;;;;;;;8.70;5.27;;;10.60;99.90;;;;;;10462590;28;20242;-84
2023/01/17 11:17:04;;;;;;;8.57;4.10;;;10.30;99.90;;;;;;10459245;28;20191;-85
2023/01/17 11:22:14;;;;;;;8.87;4.70;;;10.60;99.90;;;;;;10457991;28;20179;-83
2023/01/17 11:27:25;;;;;;;5.53;2.80;;;10.60;99.90;;;;;;10442695;28;20234;-84
2023/01/17 11:32:31;;;;;;;10.80;5.93;;;10.80;99.90;;;;;;10459787;28;20243;-84
2023/01/17 11:37:34;;;;;;;9.60;5.10;;;9.90;99.90;;;;;;10449435;28;20200;-84
2023/01/17 11:42:37;;;;;;;8.30;4.70;;;10.20;98.10;;;;;;10437064;28;20215;-84
2023/01/17 11:47:40;;;;;;;7.50;4.67;;;11.00;99.90;;;;;;10458033;28;20575;-84
2023/01/17 11:52:43;;;;;;;11.20;5.60;;;11.30;99.90;;;;;;10415400;28;20282;-84
2023/01/17 11:57:49;;;;;;;8.63;5.30;;;10.10;99.90;;;;;;10413263;28;20569;-84
2023/01/17 12:03:14;;;;;;;4.47;3.47;;;9.20;97.70;;;;;;10429094;28;20230;-84
2023/01/17 12:08:25;;;;;;;6.47;4.30;;;11.00;99.90;;;;;;10428695;28;20203;-84
2023/01/17 12:19:32;;;;;;;5.23;3.40;;;11.30;99.90;;;;;;10395978;28;20200;-84
2023/01/17 12:24:38;;;;;;;4.80;3.10;;;11.20;99.90;;;;;;10388489;28;20216;-83
2023/01/17 12:29:59;;;;;;;6.73;4.33;;;11.80;99.90;;;;;;10415423;28;20231;-83
2023/01/17 12:35:15;;;;;;;7.17;3.80;;;11.60;99.90;;;;;;10428956;28;20642;-83
2023/01/17 12:40:23;;;;;;;8.60;3.70;;;12.00;99.90;;;;;;10448898;28;20578;-83
2023/01/17 12:45:53;;;;;;;7.87;3.60;;;12.40;99.90;;;;;;10433050;28;20629;-84
2023/01/17 12:51:02;;;;;;;4.10;3.07;;;11.50;99.90;;;;;;10408812;28;20247;-84
2023/01/17 12:56:14;;;;;;;4.93;3.10;;;12.30;99.90;;;;;;10389732;28;20643;-84
2023/01/17 13:01:30;;;;;;;8.67;3.87;;;12.80;99.90;;;;;;10405720;28;20235;-84
2023/01/17 13:06:39;;;;;;;5.37;3.27;;;12.80;99.90;;;;;;10403557;28;20212;-83
2023/01/17 13:11:54;;;;;;;7.13;4.20;;;13.80;99.90;;;;;;10372451;28;20274;-84
2023/01/17 13:16:57;;;;;;;8.23;4.13;;;12.20;99.90;;;;;;10405777;28;20223;-84
2023/01/17 13:22:05;;;;;;;8.60;5.20;;;10.60;92.80;;;;;;10412335;28;20199;-84
2023/01/17 13:27:55;;;;;;;4.87;3.13;;;10.50;97.50;;;;;;10396132;28;20353;-84
2023/01/17 13:33:26;;;;;;;4.70;3.37;;;11.00;99.90;;;;;;10270173;28;20781;-84
2023/01/17 13:38:31;;;;;;;4.83;3.10;;;13.20;99.90;;;;;;10281485;28;20241;-84
2023/01/17 13:43:38;;;;;;;5.53;2.80;;;13.50;99.90;;;;;;10283627;28;20326;-84
2023/01/17 13:48:40;;;;;;;4.90;2.70;;;13.40;99.90;;;;;;10293140;28;20232;-84
2023/01/17 13:53:43;;;;;;;2.70;2.00;;;13.80;99.90;;;;;;10314137;28;20241;-84
2023/01/17 13:58:50;;;;;;;3.70;2.77;;;14.40;99.90;;;;;;10302175;28;20675;-84
2023/01/17 14:03:53;;;;;;;4.47;3.00;;;13.70;99.90;;;;;;10280161;28;20287;-84
2023/01/17 14:09:15;;;;;;;5.83;3.20;;;12.90;99.90;;;;;;10363907;28;20336;-91
2023/01/17 14:14:39;;;;;;;6.20;3.27;;;13.60;89.20;;;;;;10377429;28;20204;-90
2023/01/17 14:19:44;;;;;;;5.97;3.57;;;12.30;74.90;;;;;;10359503;28;20250;-91
2023/01/17 14:25:08;;;;;;;13.90;4.07;;;11.60;93.00;;;;;;10377287;28;20216;-92
2023/01/17 14:30:32;;;;;;;24.67;5.43;;;11.80;91.50;;;;;;10400150;28;20261;-88
2023/01/17 14:35:51;;;;;;;77.93;11.90;;;12.40;70.50;;;;;;10386966;28;20228;-89
2023/01/17 14:40:57;;;;;;;88.43;10.83;;;12.90;65.30;;;;;;10392501;28;20215;-89
2023/01/17 14:46:03;;;;;;;45.03;7.77;;;12.70;68.00;;;;;;10416815;28;20278;-88
2023/01/17 14:51:12;;;;;;;73.97;8.23;;;12.60;73.40;;;;;;10404978;28;20224;-90
2023/01/17 14:56:17;;;;;;;45.17;6.57;;;13.10;75.60;;;;;;10451236;28;20203;-89
2023/01/17 15:01:20;;;;;;;25.87;4.63;;;13.30;76.00;;;;;;10418500;28;20196;-89
2023/01/17 15:06:30;;;;;;;46.30;6.57;;;13.60;73.30;;;;;;10389241;28;20243;-89
2023/01/17 15:11:34;;;;;;;19.37;5.73;;;13.60;67.50;;;;;;10423697;28;20219;-91
2023/01/17 15:16:37;;;;;;;45.73;7.03;;;12.90;63.70;;;;;;10438164;28;20542;-90
2023/01/17 15:21:43;;;;;;;24.40;5.73;;;12.00;77.80;;;;;;10412758;28;20200;-90
2023/01/17 15:26:46;;;;;;;9.17;4.90;;;11.80;73.70;;;;;;10380304;28;20204;-81
2023/01/17 15:31:57;;;;;;;7.10;5.27;;;11.70;68.00;;;;;;10389078;28;20294;-81
2023/01/17 15:37:21;;;;;;;12.33;6.10;;;12.20;63.10;;;;;;10411429;28;20228;-82
2023/01/17 15:42:30;;;;;;;12.20;6.90;;;11.00;63.40;;;;;;10409622;28;20235;-80
2023/01/17 15:47:37;;;;;;;16.20;8.67;;;10.00;69.40;;;;;;10409083;28;20231;-82
2023/01/17 15:52:51;;;;;;;20.83;9.57;;;8.80;90.60;;;;;;10070215;28;10000260;-81
2023/01/17 15:57:54;;;;;;;21.63;12.27;;;;;;;;;;10406065;28;20287;-82
2023/01/17 16:02:58;;;;;;;23.77;12.20;;;6.00;99.90;;;;;;10397156;28;20281;-81
2023/01/17 16:08:01;;;;;;;15.17;10.30;;;6.10;99.90;;;;;;10405870;28;20231;-82
2023/01/17 16:13:08;;;;;;;22.50;12.13;;;5.80;99.90;;;;;;10406418;28;20300;-81
2023/01/17 16:18:22;;;;;;;27.17;13.20;;;5.40;99.90;;;;;;10406224;28;20787;-81
2023/01/17 16:23:26;;;;;;;40.33;17.60;;;5.10;99.90;;;;;;10414066;28;20243;-81
2023/01/17 16:28:28;;;;;;;47.33;21.07;;;4.70;99.90;;;;;;10407862;28;20231;-81
2023/01/17 16:33:31;;;;;;;32.17;17.00;;;4.40;99.90;;;;;;10404132;28;20720;-82
2023/01/17 16:38:34;;;;;;;26.33;14.83;;;4.40;99.90;;;;;;10389772;28;21037;-81
2023/01/17 16:43:36;;;;;;;27.80;14.83;;;4.20;99.90;;;;;;10390436;28;20262;-81
2023/01/17 16:48:39;;;;;;;19.43;11.63;;;4.10;99.90;;;;;;10374033;28;20235;-81
2023/01/17 16:53:41;;;;;;;30.90;18.17;;;4.10;99.90;;;;;;10385202;28;20259;-81
2023/01/17 16:58:44;;;;;;;32.40;19.20;;;4.10;99.90;;;;;;10401577;28;20678;-81
2023/01/17 17:03:46;;;;;;;29.73;16.40;;;3.40;99.90;;;;;;10407456;28;20232;-81
2023/01/17 17:08:49;;;;;;;27.80;14.93;;;3.10;99.90;;;;;;10403622;28;20227;-81
2023/01/17 17:13:53;;;;;;;26.27;14.00;;;2.70;99.90;;;;;;10404741;28;20262;-82
2023/01/17 17:18:58;;;;;;;28.13;14.47;;;2.60;99.90;;;;;;10406302;28;20761;-81
2023/01/17 17:24:01;;;;;;;28.33;15.17;;;2.60;99.90;;;;;;10387731;28;20309;-82
2023/01/17 17:29:09;;;;;;;28.53;16.57;;;2.70;99.90;;;;;;10406553;28;20239;-82
2023/01/17 17:34:13;;;;;;;43.63;23.63;;;2.80;99.90;;;;;;10405740;28;20308;-82
2023/01/17 17:39:16;;;;;;;40.80;22.00;;;3.30;99.90;;;;;;10407646;28;20231;-82
2023/01/17 17:44:18;;;;;;;50.90;25.27;;;3.00;99.90;;;;;;10385905;28;20227;-82
2023/01/17 17:49:21;;;;;;;47.60;24.57;;;2.90;99.90;;;;;;10388806;28;20247;-82
2023/01/17 17:54:26;;;;;;;56.07;27.23;;;3.90;99.90;;;;;;10406883;28;20259;-81
2023/01/17 17:59:29;;;;;;;51.13;28.00;;;3.70;99.90;;;;;;10386738;28;20769;-82
2023/01/17 18:04:32;;;;;;;54.77;28.30;;;3.40;99.90;;;;;;10388781;28;20240;-81
2023/01/17 18:09:35;;;;;;;52.27;27.87;;;3.30;99.90;;;;;;10387375;28;21014;-81
2023/01/17 18:14:39;;;;;;;55.47;30.67;;;3.00;99.90;;;;;;10405660;28;20301;-81
2023/01/17 18:19:44;;;;;;;58.63;30.90;;;2.50;99.90;;;;;;10388333;28;20649;-81
2023/01/17 18:24:47;;;;;;;59.10;32.43;;;2.00;99.90;;;;;;10407012;28;20252;-81
2023/01/17 18:29:50;;;;;;;66.70;37.30;;;1.70;99.90;;;;;;10403202;28;20280;-80
2023/01/17 18:34:53;;;;;;;67.03;36.07;;;1.30;99.90;;;;;;10413027;28;20262;-81
2023/01/17 18:39:56;;;;;;;67.83;41.20;;;1.10;99.90;;;;;;10428865;28;20227;-81
2023/01/17 18:44:59;;;;;;;67.43;38.23;;;1.00;99.90;;;;;;10415936;28;20293;-81
2023/01/17 18:50:02;;;;;;;60.73;33.87;;;1.00;99.90;;;;;;10410273;28;20262;-91
2023/01/17 18:55:05;;;;;;;87.47;45.83;;;4.50;99.90;;;;;;10410153;28;20724;-90
2023/01/17 19:00:08;;;;;;;86.30;46.63;;;4.20;99.90;;;;;;10391159;28;20242;-91
2023/01/17 19:05:13;;;;;;;72.53;38.10;;;2.70;99.90;;;;;;10385549;28;20336;-92
2023/01/17 19:10:18;;;;;;;55.40;29.27;;;1.90;99.90;;;;;;10412724;28;20307;-90
2023/01/17 19:15:21;;;;;;;50.60;26.97;;;1.20;99.90;;;;;;10392813;28;20235;-92
2023/01/17 19:20:24;;;;;;;51.17;28.30;;;0.80;99.90;;;;;;10411604;28;20285;-91
2023/01/17 19:25:27;;;;;;;46.83;26.33;;;0.50;99.90;;;;;;10407129;28;20247;-91
2023/01/17 19:30:29;;;;;;;47.77;28.30;;;0.20;99.90;;;;;;10412367;28;20278;-90
2023/01/17 19:35:32;;;;;;;48.80;27.93;;;0.00;99.90;;;;;;10042953;28;9999751;-90
2023/01/17 19:40:34;;;;;;;64.73;32.30;;;-0.10;99.90;;;;;;10387624;28;20289;-90
2023/01/17 19:45:37;;;;;;;69.50;35.07;;;-0.20;99.90;;;;;;10396423;28;20238;-89
2023/01/17 19:50:40;;;;;;;91.17;44.70;;;-0.30;99.90;;;;;;10387521;28;20251;-89
2023/01/17 19:55:43;;;;;;;91.63;47.33;;;-0.20;99.90;;;;;;10392385;28;20275;-90
2023/01/17 20:00:46;;;;;;;90.63;51.17;;;-0.30;99.90;;;;;;10392489;28;20239;-89
2023/01/17 20:05:55;;;;;;;83.93;48.53;;;-0.20;99.90;;;;;;10408413;28;20686;-89
2023/01/17 20:11:07;;;;;;;83.87;43.80;;;-0.20;99.90;;;;;;10407932;28;20313;-88
2023/01/17 20:16:12;;;;;;;72.40;40.60;;;-0.40;99.90;;;;;;10405477;28;20223;-88
2023/01/17 20:21:24;;;;;;;54.17;31.20;;;-0.50;99.90;;;;;;10410698;28;20231;-89
2023/01/17 20:26:33;;;;;;;58.13;34.93;;;0.70;99.90;;;;;;10408540;28;20236;-80
2023/01/17 20:31:38;;;;;;;60.50;30.77;;;1.70;99.90;;;;;;10407494;28;20271;-81
2023/01/17 20:36:41;;;;;;;53.60;28.93;;;;;;;;;;10406061;28;20228;-81
2023/01/17 20:41:48;;;;;;;55.00;29.20;;;1.30;99.90;;;;;;10404238;28;20294;-81
2023/01/17 20:46:51;;;;;;;55.07;26.43;;;1.00;99.90;;;;;;10402442;28;20227;-80
2023/01/17 20:51:54;;;;;;;46.97;26.20;;;0.70;99.90;;;;;;10389223;28;20301;-81
2023/01/17 20:56:57;;;;;;;59.27;30.43;;;0.70;99.90;;;;;;10405778;28;20316;-80
2023/01/17 21:02:00;;;;;;;52.17;28.60;;;0.10;99.90;;;;;;10399599;28;20235;-80
2023/01/17 21:07:03;;;;;;;60.27;32.13;;;0.10;99.90;;;;;;10387693;28;20279;-80
2023/01/17 21:12:06;;;;;;;57.33;30.80;;;0.20;99.90;;;;;;10385050;28;20263;-80
2023/01/17 21:17:08;;;;;;;50.37;29.37;;;0.30;99.90;;;;;;10409467;28;20286;-80
2023/01/17 21:22:15;;;;;;;61.67;35.07;;;0.10;99.90;;;;;;10404211;28;20229;-80
2023/01/17 21:27:18;;;;;;;56.57;31.60;;;-0.30;99.90;;;;;;10406485;28;20255;-80
2023/01/17 21:32:20;;;;;;;62.10;33.70;;;-0.30;99.90;;;;;;10407147;28;20283;-80
2023/01/17 21:37:23;;;;;;;66.57;33.30;;;-0.30;99.90;;;;;;10405949;28;20654;-80
2023/01/17 21:42:26;;;;;;;63.17;33.10;;;-0.20;99.90;;;;;;10406435;28;20227;-81
2023/01/17 21:47:28;;;;;;;63.47;31.10;;;-0.10;99.90;;;;;;10406729;28;20235;-80
2023/01/17 21:52:31;;;;;;;58.47;32.40;;;-0.50;99.90;;;;;;10389150;28;20976;-80
2023/01/17 22:02:54;;;;;;;46.37;27.30;;;-0.50;99.90;;;;;;10406391;28;20277;-80
2023/01/17 22:08:14;;;;;;;48.33;26.63;;;0.20;99.90;;;;;;10410797;28;20329;-81
2023/01/17 22:13:17;;;;;;;48.67;26.63;;;0.30;99.90;;;;;;10411656;28;20289;-81
2023/01/17 22:18:20;;;;;;;42.17;23.43;;;0.30;99.90;;;;;;10392900;28;20239;-80
2023/01/17 22:23:22;;;;;;;59.13;31.77;;;0.50;99.90;;;;;;10389331;28;20227;-81
2023/01/17 22:28:25;;;;;;;45.23;25.93;;;0.10;99.90;;;;;;10411077;28;20912;-81
2023/01/17 22:33:27;;;;;;;39.87;24.07;;;0.10;99.90;;;;;;10410420;28;20318;-80
2023/01/17 22:38:31;;;;;;;42.87;24.23;;;-0.10;99.90;;;;;;10409441;28;20235;-80
2023/01/17 22:43:41;;;;;;;41.50;25.17;;;0.10;99.90;;;;;;10411149;28;20247;-80
2023/01/17 22:48:44;;;;;;;42.67;24.10;;;0.30;99.90;;;;;;10402491;28;20241;-80
2023/01/17 22:53:53;;;;;;;42.53;24.57;;;0.50;99.90;;;;;;10392693;28;20316;-80
2023/01/17 22:58:57;;;;;;;49.00;27.37;;;0.70;99.90;;;;;;10410370;28;20626;-80
2023/01/17 23:04:03;;;;;;;48.47;26.00;;;0.60;99.90;;;;;;10392361;28;20288;-80
2023/01/17 23:09:12;;;;;;;42.37;26.33;;;0.20;99.90;;;;;;10408445;28;20290;-80
2023/01/17 23:14:20;;;;;;;44.40;28.10;;;0.30;99.90;;;;;;10407875;28;20243;-80
2023/01/17 23:19:25;;;;;;;45.60;27.07;;;0.10;99.90;;;;;;10410144;28;20239;-80
2023/01/17 23:24:27;;;;;;;49.53;29.63;;;0.80;99.90;;;;;;10412742;28;20243;-81
2023/01/17 23:29:30;;;;;;;50.33;28.63;;;0.80;99.90;;;;;;10394694;28;20247;-81
2023/01/17 23:34:32;;;;;;;43.80;25.73;;;0.30;99.90;;;;;;10412282;28;20293;-80
2023/01/17 23:39:35;;;;;;;45.90;28.23;;;0.70;99.90;;;;;;10411248;28;20225;-81
2023/01/17 23:44:37;;;;;;;54.57;31.30;;;0.70;99.90;;;;;;10392385;28;20247;-81
2023/01/17 23:49:42;;;;;;;47.40;27.83;;;0.70;99.90;;;;;;10410738;28;20752;-81
2023/01/17 23:54:44;;;;;;;49.63;30.13;;;0.80;99.90;;;;;;10411103;28;20258;-81
2023/01/17 23:59:47;;;;;;;56.20;28.87;;;0.70;99.90;;;;;;10391855;28;20247;-81
